Terminal Aerodrome Forecast
Issued by NWS

Home | Current Version | Previous Version | Text Only | Print | Product List | Glossary On
Versions: 1 2 3 4 5 6 7 8 9 10 11 12 13 14 15 16 17 18 19 20 21 22 23 24 25 26 27 28 29 30 31 32 33 34 35
000
FTUS41 KCTP 151740
TAFUNV
TAF
KUNV 151740Z 1518/1618 20006KT P6SM -SHSN BKN025 OVC035
      TEMPO 1518/1522 3SM -SHSN OVC025
     FM152200 25007KT P6SM SCT025 OVC050
     FM161000 25012G19KT P6SM VCSH OVC040=

USA.gov is the U.S. government's official web portal to all federal, state and local government web resources and services.